sensor_id;sensor_type;location;lat;lon;timestamp;P1;durP1;ratioP1;P2;durP2;ratioP2
15643;SDS011;7921;43.586;1.408;2023-05-15T00:00:12;6.37;;;5.77;;
15643;SDS011;7921;43.586;1.408;2023-05-15T00:02:38;7.10;;;6.43;;
15643;SDS011;7921;43.586;1.408;2023-05-15T00:05:04;6.63;;;6.00;;
15643;SDS011;7921;43.586;1.408;2023-05-15T00:07:31;6.53;;;6.00;;
15643;SDS011;7921;43.586;1.408;2023-05-15T00:09:57;6.33;;;5.73;;
15643;SDS011;7921;43.586;1.408;2023-05-15T00:12:22;6.57;;;5.97;;
15643;SDS011;7921;43.586;1.408;2023-05-15T00:14:47;6.90;;;6.40;;
15643;SDS011;7921;43.586;1.408;2023-05-15T00:17:13;6.77;;;6.17;;
15643;SDS011;7921;43.586;1.408;2023-05-15T00:19:38;7.10;;;6.50;;
15643;SDS011;7921;43.586;1.408;2023-05-15T00:22:04;7.20;;;6.57;;
15643;SDS011;7921;43.586;1.408;2023-05-15T00:24:29;6.70;;;6.03;;
15643;SDS011;7921;43.586;1.408;2023-05-15T00:26:54;7.30;;;6.60;;
15643;SDS011;7921;43.586;1.408;2023-05-15T00:29:20;7.00;;;6.50;;
15643;SDS011;7921;43.586;1.408;2023-05-15T00:31:45;7.00;;;6.40;;
15643;SDS011;7921;43.586;1.408;2023-05-15T00:34:11;7.10;;;6.50;;
15643;SDS011;7921;43.586;1.408;2023-05-15T00:36:36;6.93;;;6.23;;
15643;SDS011;7921;43.586;1.408;2023-05-15T00:39:01;7.80;;;7.07;;
15643;SDS011;7921;43.586;1.408;2023-05-15T00:41:27;7.20;;;6.50;;
15643;SDS011;7921;43.586;1.408;2023-05-15T00:43:56;7.60;;;7.00;;
15643;SDS011;7921;43.586;1.408;2023-05-15T00:46:21;7.27;;;6.67;;
15643;SDS011;7921;43.586;1.408;2023-05-15T00:48:49;7.93;;;7.17;;
15643;SDS011;7921;43.586;1.408;2023-05-15T00:51:15;7.27;;;6.63;;
15643;SDS011;7921;43.586;1.408;2023-05-15T00:53:41;7.70;;;7.10;;
15643;SDS011;7921;43.586;1.408;2023-05-15T00:56:07;7.77;;;7.13;;
15643;SDS011;7921;43.586;1.408;2023-05-15T00:58:33;7.27;;;6.67;;
15643;SDS011;7921;43.586;1.408;2023-05-15T01:00:59;7.40;;;6.80;;
15643;SDS011;7921;43.586;1.408;2023-05-15T01:03:24;7.43;;;6.83;;
15643;SDS011;7921;43.586;1.408;2023-05-15T01:05:50;7.27;;;6.70;;
15643;SDS011;7921;43.586;1.408;2023-05-15T01:10:40;6.77;;;6.27;;
15643;SDS011;7921;43.586;1.408;2023-05-15T01:13:07;7.13;;;6.53;;
15643;SDS011;7921;43.586;1.408;2023-05-15T01:15:33;7.63;;;6.93;;
15643;SDS011;7921;43.586;1.408;2023-05-15T01:17:58;7.97;;;7.30;;
15643;SDS011;7921;43.586;1.408;2023-05-15T01:20:24;7.90;;;7.20;;
15643;SDS011;7921;43.586;1.408;2023-05-15T01:29:07;7.30;;;6.70;;
15643;SDS011;7921;43.586;1.408;2023-05-15T01:31:35;7.60;;;7.00;;
15643;SDS011;7921;43.586;1.408;2023-05-15T01:34:02;8.00;;;7.40;;
15643;SDS011;7921;43.586;1.408;2023-05-15T01:39:17;7.83;;;7.13;;
15643;SDS011;7921;43.586;1.408;2023-05-15T01:41:44;7.73;;;7.13;;
15643;SDS011;7921;43.586;1.408;2023-05-15T01:44:14;7.87;;;6.97;;
15643;SDS011;7921;43.586;1.408;2023-05-15T01:46:48;8.03;;;7.33;;
15643;SDS011;7921;43.586;1.408;2023-05-15T01:49:16;8.03;;;7.43;;
15643;SDS011;7921;43.586;1.408;2023-05-15T01:51:44;8.30;;;7.40;;
15643;SDS011;7921;43.586;1.408;2023-05-15T01:54:12;8.00;;;7.30;;
15643;SDS011;7921;43.586;1.408;2023-05-15T01:56:38;7.83;;;7.13;;
15643;SDS011;7921;43.586;1.408;2023-05-15T01:59:05;8.80;;;8.00;;
15643;SDS011;7921;43.586;1.408;2023-05-15T02:01:31;8.10;;;7.40;;
15643;SDS011;7921;43.586;1.408;2023-05-15T02:03:57;8.93;;;8.13;;
15643;SDS011;7921;43.586;1.408;2023-05-15T02:06:24;8.07;;;7.27;;
15643;SDS011;7921;43.586;1.408;2023-05-15T02:08:49;8.23;;;7.57;;
15643;SDS011;7921;43.586;1.408;2023-05-15T02:11:15;8.50;;;7.70;;
15643;SDS011;7921;43.586;1.408;2023-05-15T02:13:41;8.50;;;7.70;;
15643;SDS011;7921;43.586;1.408;2023-05-15T02:16:07;8.40;;;7.60;;
15643;SDS011;7921;43.586;1.408;2023-05-15T02:18:32;7.80;;;7.20;;
15643;SDS011;7921;43.586;1.408;2023-05-15T02:20:58;7.50;;;6.90;;
15643;SDS011;7921;43.586;1.408;2023-05-15T02:23:25;8.40;;;7.57;;
15643;SDS011;7921;43.586;1.408;2023-05-15T02:31:30;7.57;;;6.97;;
15643;SDS011;7921;43.586;1.408;2023-05-15T02:36:32;7.67;;;6.97;;
15643;SDS011;7921;43.586;1.408;2023-05-15T02:38:57;7.50;;;6.87;;
15643;SDS011;7921;43.586;1.408;2023-05-15T02:41:23;8.00;;;7.30;;
15643;SDS011;7921;43.586;1.408;2023-05-15T02:43:49;7.40;;;6.80;;
15643;SDS011;7921;43.586;1.408;2023-05-15T02:46:15;7.73;;;7.03;;
15643;SDS011;7921;43.586;1.408;2023-05-15T02:48:41;7.83;;;7.13;;
15643;SDS011;7921;43.586;1.408;2023-05-15T02:51:07;7.53;;;6.90;;
15643;SDS011;7921;43.586;1.408;2023-05-15T02:53:34;7.63;;;6.40;;
15643;SDS011;7921;43.586;1.408;2023-05-15T02:56:03;8.20;;;7.37;;
15643;SDS011;7921;43.586;1.408;2023-05-15T02:58:29;7.47;;;6.77;;
15643;SDS011;7921;43.586;1.408;2023-05-15T03:00:54;6.93;;;6.33;;
15643;SDS011;7921;43.586;1.408;2023-05-15T03:03:20;7.73;;;7.03;;
15643;SDS011;7921;43.586;1.408;2023-05-15T03:05:45;8.97;;;6.43;;
15643;SDS011;7921;43.586;1.408;2023-05-15T03:08:11;7.17;;;6.57;;
15643;SDS011;7921;43.586;1.408;2023-05-15T03:10:36;7.40;;;6.80;;
15643;SDS011;7921;43.586;1.408;2023-05-15T03:13:02;7.43;;;6.83;;
15643;SDS011;7921;43.586;1.408;2023-05-15T03:15:27;7.53;;;6.83;;
15643;SDS011;7921;43.586;1.408;2023-05-15T03:17:52;8.00;;;7.30;;
15643;SDS011;7921;43.586;1.408;2023-05-15T03:20:18;7.33;;;6.63;;
15643;SDS011;7921;43.586;1.408;2023-05-15T03:22:43;7.63;;;7.03;;
15643;SDS011;7921;43.586;1.408;2023-05-15T03:25:09;7.63;;;6.80;;
15643;SDS011;7921;43.586;1.408;2023-05-15T03:27:35;7.20;;;6.60;;
15643;SDS011;7921;43.586;1.408;2023-05-15T03:30:00;7.77;;;7.07;;
15643;SDS011;7921;43.586;1.408;2023-05-15T03:32:26;7.30;;;6.70;;
15643;SDS011;7921;43.586;1.408;2023-05-15T03:34:51;7.70;;;7.00;;
15643;SDS011;7921;43.586;1.408;2023-05-15T03:37:17;7.37;;;6.77;;
15643;SDS011;7921;43.586;1.408;2023-05-15T03:39:42;7.50;;;6.90;;
15643;SDS011;7921;43.586;1.408;2023-05-15T03:42:08;7.33;;;6.67;;
15643;SDS011;7921;43.586;1.408;2023-05-15T03:44:33;7.60;;;6.90;;
15643;SDS011;7921;43.586;1.408;2023-05-15T03:46:59;7.50;;;6.80;;
15643;SDS011;7921;43.586;1.408;2023-05-15T03:49:24;7.60;;;6.90;;
15643;SDS011;7921;43.586;1.408;2023-05-15T03:51:49;7.47;;;6.80;;
15643;SDS011;7921;43.586;1.408;2023-05-15T03:54:15;7.43;;;6.83;;
15643;SDS011;7921;43.586;1.408;2023-05-15T03:56:40;7.90;;;6.87;;
15643;SDS011;7921;43.586;1.408;2023-05-15T03:59:06;7.10;;;6.43;;
15643;SDS011;7921;43.586;1.408;2023-05-15T04:01:31;7.53;;;6.93;;
15643;SDS011;7921;43.586;1.408;2023-05-15T04:03:57;7.17;;;6.57;;
15643;SDS011;7921;43.586;1.408;2023-05-15T04:06:22;6.90;;;6.17;;
15643;SDS011;7921;43.586;1.408;2023-05-15T04:08:48;7.67;;;7.07;;
15643;SDS011;7921;43.586;1.408;2023-05-15T04:11:13;6.90;;;6.17;;
15643;SDS011;7921;43.586;1.408;2023-05-15T04:13:39;7.27;;;6.40;;
15643;SDS011;7921;43.586;1.408;2023-05-15T04:16:05;6.57;;;6.07;;
15643;SDS011;7921;43.586;1.408;2023-05-15T04:18:31;6.93;;;6.23;;
15643;SDS011;7921;43.586;1.408;2023-05-15T04:20:57;7.73;;;6.00;;
15643;SDS011;7921;43.586;1.408;2023-05-15T04:23:22;6.00;;;5.50;;
15643;SDS011;7921;43.586;1.408;2023-05-15T04:25:47;7.03;;;6.23;;
15643;SDS011;7921;43.586;1.408;2023-05-15T04:28:13;6.70;;;6.20;;
15643;SDS011;7921;43.586;1.408;2023-05-15T04:30:39;6.53;;;5.83;;
15643;SDS011;7921;43.586;1.408;2023-05-15T04:33:04;7.10;;;6.50;;
15643;SDS011;7921;43.586;1.408;2023-05-15T04:35:30;6.50;;;5.90;;
15643;SDS011;7921;43.586;1.408;2023-05-15T04:37:55;6.37;;;5.77;;
15643;SDS011;7921;43.586;1.408;2023-05-15T04:40:21;6.57;;;5.97;;
15643;SDS011;7921;43.586;1.408;2023-05-15T04:42:46;6.87;;;6.20;;
15643;SDS011;7921;43.586;1.408;2023-05-15T04:45:13;7.37;;;6.77;;
15643;SDS011;7921;43.586;1.408;2023-05-15T04:47:39;5.93;;;5.43;;
15643;SDS011;7921;43.586;1.408;2023-05-15T04:50:04;7.40;;;6.70;;
15643;SDS011;7921;43.586;1.408;2023-05-15T04:52:30;5.93;;;5.40;;
15643;SDS011;7921;43.586;1.408;2023-05-15T04:54:56;6.97;;;6.37;;
15643;SDS011;7921;43.586;1.408;2023-05-15T04:57:22;6.80;;;6.20;;
15643;SDS011;7921;43.586;1.408;2023-05-15T04:59:47;6.77;;;6.17;;
15643;SDS011;7921;43.586;1.408;2023-05-15T05:02:13;5.90;;;5.40;;
15643;SDS011;7921;43.586;1.408;2023-05-15T05:04:40;7.03;;;6.33;;
15643;SDS011;7921;43.586;1.408;2023-05-15T05:07:06;6.40;;;5.80;;
15643;SDS011;7921;43.586;1.408;2023-05-15T05:09:33;6.77;;;6.10;;
15643;SDS011;7921;43.586;1.408;2023-05-15T05:11:59;6.50;;;6.00;;
15643;SDS011;7921;43.586;1.408;2023-05-15T05:14:25;6.27;;;5.67;;
15643;SDS011;7921;43.586;1.408;2023-05-15T05:16:50;7.17;;;6.27;;
15643;SDS011;7921;43.586;1.408;2023-05-15T05:19:16;6.77;;;6.17;;
15643;SDS011;7921;43.586;1.408;2023-05-15T05:21:41;6.57;;;5.97;;
15643;SDS011;7921;43.586;1.408;2023-05-15T05:24:06;6.47;;;5.80;;
15643;SDS011;7921;43.586;1.408;2023-05-15T05:26:32;6.87;;;5.97;;
15643;SDS011;7921;43.586;1.408;2023-05-15T05:28:57;5.57;;;5.17;;
15643;SDS011;7921;43.586;1.408;2023-05-15T05:31:23;7.07;;;5.87;;
15643;SDS011;7921;43.586;1.408;2023-05-15T05:33:48;6.60;;;6.10;;
15643;SDS011;7921;43.586;1.408;2023-05-15T05:36:14;9.30;;;6.20;;
15643;SDS011;7921;43.586;1.408;2023-05-15T05:38:40;6.67;;;6.07;;
15643;SDS011;7921;43.586;1.408;2023-05-15T05:41:06;6.97;;;6.03;;
15643;SDS011;7921;43.586;1.408;2023-05-15T05:43:31;6.30;;;5.77;;
15643;SDS011;7921;43.586;1.408;2023-05-15T05:45:57;6.70;;;6.10;;
15643;SDS011;7921;43.586;1.408;2023-05-15T05:48:22;7.87;;;7.17;;
15643;SDS011;7921;43.586;1.408;2023-05-15T05:50:47;6.77;;;6.27;;
15643;SDS011;7921;43.586;1.408;2023-05-15T05:53:13;7.20;;;6.60;;
15643;SDS011;7921;43.586;1.408;2023-05-15T05:55:38;6.63;;;6.03;;
15643;SDS011;7921;43.586;1.408;2023-05-15T05:58:04;7.77;;;6.97;;
15643;SDS011;7921;43.586;1.408;2023-05-15T06:00:29;8.10;;;7.00;;
15643;SDS011;7921;43.586;1.408;2023-05-15T06:02:58;8.47;;;7.63;;
15643;SDS011;7921;43.586;1.408;2023-05-15T06:05:27;7.80;;;7.10;;
15643;SDS011;7921;43.586;1.408;2023-05-15T06:07:52;8.00;;;7.20;;
15643;SDS011;7921;43.586;1.408;2023-05-15T06:10:18;8.90;;;8.10;;
15643;SDS011;7921;43.586;1.408;2023-05-15T06:12:44;8.33;;;7.63;;
15643;SDS011;7921;43.586;1.408;2023-05-15T06:15:10;8.53;;;7.73;;
15643;SDS011;7921;43.586;1.408;2023-05-15T06:17:36;8.47;;;7.67;;
15643;SDS011;7921;43.586;1.408;2023-05-15T06:20:02;8.27;;;7.57;;
15643;SDS011;7921;43.586;1.408;2023-05-15T06:22:32;8.93;;;8.23;;
15643;SDS011;7921;43.586;1.408;2023-05-15T06:24:57;10.37;;;8.03;;
15643;SDS011;7921;43.586;1.408;2023-05-15T06:27:23;8.90;;;8.10;;
15643;SDS011;7921;43.586;1.408;2023-05-15T06:29:50;9.30;;;8.50;;
15643;SDS011;7921;43.586;1.408;2023-05-15T06:32:16;10.80;;;8.70;;
15643;SDS011;7921;43.586;1.408;2023-05-15T06:34:41;9.63;;;8.30;;
15643;SDS011;7921;43.586;1.408;2023-05-15T06:37:06;9.07;;;8.30;;
15643;SDS011;7921;43.586;1.408;2023-05-15T06:39:32;9.03;;;8.13;;
15643;SDS011;7921;43.586;1.408;2023-05-15T06:41:57;8.73;;;7.93;;
15643;SDS011;7921;43.586;1.408;2023-05-15T06:44:25;8.57;;;7.87;;
15643;SDS011;7921;43.586;1.408;2023-05-15T06:46:54;9.27;;;8.47;;
15643;SDS011;7921;43.586;1.408;2023-05-15T06:49:19;8.13;;;7.53;;
15643;SDS011;7921;43.586;1.408;2023-05-15T06:51:44;8.90;;;8.03;;
15643;SDS011;7921;43.586;1.408;2023-05-15T06:54:10;8.37;;;7.57;;
15643;SDS011;7921;43.586;1.408;2023-05-15T06:56:36;8.20;;;7.50;;
15643;SDS011;7921;43.586;1.408;2023-05-15T06:59:01;7.80;;;7.20;;
15643;SDS011;7921;43.586;1.408;2023-05-15T07:01:26;8.20;;;7.50;;
15643;SDS011;7921;43.586;1.408;2023-05-15T07:03:52;7.50;;;6.80;;
15643;SDS011;7921;43.586;1.408;2023-05-15T07:06:17;8.97;;;8.17;;
15643;SDS011;7921;43.586;1.408;2023-05-15T07:08:42;8.47;;;7.70;;
15643;SDS011;7921;43.586;1.408;2023-05-15T07:11:08;8.93;;;8.13;;
15643;SDS011;7921;43.586;1.408;2023-05-15T07:13:33;8.53;;;7.73;;
15643;SDS011;7921;43.586;1.408;2023-05-15T07:15:59;8.50;;;7.67;;
15643;SDS011;7921;43.586;1.408;2023-05-15T07:18:24;9.00;;;8.20;;
15643;SDS011;7921;43.586;1.408;2023-05-15T07:20:50;8.67;;;7.77;;
15643;SDS011;7921;43.586;1.408;2023-05-15T07:23:15;9.00;;;8.10;;
15643;SDS011;7921;43.586;1.408;2023-05-15T07:25:40;9.43;;;8.60;;
15643;SDS011;7921;43.586;1.408;2023-05-15T07:28:06;9.20;;;8.30;;
15643;SDS011;7921;43.586;1.408;2023-05-15T07:30:31;9.07;;;8.20;;
15643;SDS011;7921;43.586;1.408;2023-05-15T07:32:56;9.17;;;8.37;;
15643;SDS011;7921;43.586;1.408;2023-05-15T07:35:22;9.77;;;8.87;;
15643;SDS011;7921;43.586;1.408;2023-05-15T07:37:47;9.50;;;8.60;;
15643;SDS011;7921;43.586;1.408;2023-05-15T07:40:13;9.57;;;8.73;;
15643;SDS011;7921;43.586;1.408;2023-05-15T07:42:39;9.03;;;8.33;;
15643;SDS011;7921;43.586;1.408;2023-05-15T07:45:06;9.30;;;8.37;;
15643;SDS011;7921;43.586;1.408;2023-05-15T07:47:32;9.57;;;8.67;;
15643;SDS011;7921;43.586;1.408;2023-05-15T07:49:57;10.10;;;9.07;;
15643;SDS011;7921;43.586;1.408;2023-05-15T07:52:22;8.57;;;7.87;;
15643;SDS011;7921;43.586;1.408;2023-05-15T07:54:48;10.13;;;9.13;;
15643;SDS011;7921;43.586;1.408;2023-05-15T07:57:13;9.37;;;8.47;;
15643;SDS011;7921;43.586;1.408;2023-05-15T07:59:39;9.70;;;8.80;;
15643;SDS011;7921;43.586;1.408;2023-05-15T08:02:05;8.87;;;8.07;;
15643;SDS011;7921;43.586;1.408;2023-05-15T08:04:31;10.27;;;8.03;;
15643;SDS011;7921;43.586;1.408;2023-05-15T08:06:56;8.93;;;8.13;;
15643;SDS011;7921;43.586;1.408;2023-05-15T08:09:21;8.87;;;8.17;;
15643;SDS011;7921;43.586;1.408;2023-05-15T08:11:47;9.73;;;8.83;;
15643;SDS011;7921;43.586;1.408;2023-05-15T08:14:12;8.67;;;7.97;;
15643;SDS011;7921;43.586;1.408;2023-05-15T08:16:37;11.30;;;7.83;;
15643;SDS011;7921;43.586;1.408;2023-05-15T08:19:03;8.63;;;8.03;;
15643;SDS011;7921;43.586;1.408;2023-05-15T08:21:28;9.10;;;8.30;;
15643;SDS011;7921;43.586;1.408;2023-05-15T08:23:55;7.93;;;7.33;;
15643;SDS011;7921;43.586;1.408;2023-05-15T08:26:20;7.73;;;7.03;;
15643;SDS011;7921;43.586;1.408;2023-05-15T08:28:46;7.72;;;7.10;;
15643;SDS011;7921;43.586;1.408;2023-05-15T08:31:11;8.27;;;7.47;;
15643;SDS011;7921;43.586;1.408;2023-05-15T08:33:37;7.87;;;7.27;;
15643;SDS011;7921;43.586;1.408;2023-05-15T08:36:02;7.82;;;6.90;;
15643;SDS011;7921;43.586;1.408;2023-05-15T08:38:28;8.15;;;7.55;;
15643;SDS011;7921;43.586;1.408;2023-05-15T08:40:53;8.18;;;7.40;;
15643;SDS011;7921;43.586;1.408;2023-05-15T08:43:22;8.00;;;7.30;;
15643;SDS011;7921;43.586;1.408;2023-05-15T08:45:48;6.67;;;6.10;;
15643;SDS011;7921;43.586;1.408;2023-05-15T08:48:15;7.07;;;5.65;;
15643;SDS011;7921;43.586;1.408;2023-05-15T08:50:42;7.10;;;6.50;;
15643;SDS011;7921;43.586;1.408;2023-05-15T08:53:08;6.70;;;6.10;;
15643;SDS011;7921;43.586;1.408;2023-05-15T08:55:34;6.45;;;5.95;;
15643;SDS011;7921;43.586;1.408;2023-05-15T08:58:00;6.20;;;5.70;;
15643;SDS011;7921;43.586;1.408;2023-05-15T09:00:25;6.20;;;5.70;;
15643;SDS011;7921;43.586;1.408;2023-05-15T09:02:52;6.63;;;6.03;;
15643;SDS011;7921;43.586;1.408;2023-05-15T09:05:18;5.85;;;5.30;;
15643;SDS011;7921;43.586;1.408;2023-05-15T09:07:43;6.47;;;5.97;;
15643;SDS011;7921;43.586;1.408;2023-05-15T09:10:10;6.53;;;5.93;;
15643;SDS011;7921;43.586;1.408;2023-05-15T09:12:38;6.43;;;5.82;;
15643;SDS011;7921;43.586;1.408;2023-05-15T09:17:41;6.93;;;6.32;;
15643;SDS011;7921;43.586;1.408;2023-05-15T09:20:10;5.97;;;5.47;;
15643;SDS011;7921;43.586;1.408;2023-05-15T09:22:52;5.80;;;5.30;;
15643;SDS011;7921;43.586;1.408;2023-05-15T09:27:59;5.53;;;5.07;;
15643;SDS011;7921;43.586;1.408;2023-05-15T09:30:25;5.50;;;5.00;;
15643;SDS011;7921;43.586;1.408;2023-05-15T09:32:51;5.15;;;4.75;;
15643;SDS011;7921;43.586;1.408;2023-05-15T09:35:36;4.97;;;4.57;;
15643;SDS011;7921;43.586;1.408;2023-05-15T09:38:03;5.55;;;5.05;;
15643;SDS011;7921;43.586;1.408;2023-05-15T09:40:32;5.30;;;4.90;;
15643;SDS011;7921;43.586;1.408;2023-05-15T09:42:58;4.55;;;4.10;;
15643;SDS011;7921;43.586;1.408;2023-05-15T09:45:24;4.55;;;4.15;;
15643;SDS011;7921;43.586;1.408;2023-05-15T09:47:51;4.75;;;3.80;;
15643;SDS011;7921;43.586;1.408;2023-05-15T09:50:20;3.92;;;3.63;;
15643;SDS011;7921;43.586;1.408;2023-05-15T09:52:47;5.88;;;3.90;;
15643;SDS011;7921;43.586;1.408;2023-05-15T09:55:17;3.90;;;3.60;;
15643;SDS011;7921;43.586;1.408;2023-05-15T09:57:44;5.50;;;4.35;;
15643;SDS011;7921;43.586;1.408;2023-05-15T10:00:29;4.47;;;4.18;;
15643;SDS011;7921;43.586;1.408;2023-05-15T10:02:56;4.20;;;3.80;;
15643;SDS011;7921;43.586;1.408;2023-05-15T10:05:25;6.05;;;3.85;;
15643;SDS011;7921;43.586;1.408;2023-05-15T10:07:53;4.00;;;3.70;;
15643;SDS011;7921;43.586;1.408;2023-05-15T10:10:19;5.00;;;4.60;;
15643;SDS011;7921;43.586;1.408;2023-05-15T10:12:45;4.60;;;4.20;;
15643;SDS011;7921;43.586;1.408;2023-05-15T10:15:10;5.00;;;4.45;;
15643;SDS011;7921;43.586;1.408;2023-05-15T10:17:36;4.65;;;4.25;;
15643;SDS011;7921;43.586;1.408;2023-05-15T10:20:03;4.35;;;4.03;;
15643;SDS011;7921;43.586;1.408;2023-05-15T10:22:31;4.72;;;4.25;;
15643;SDS011;7921;43.586;1.408;2023-05-15T10:25:04;4.95;;;4.47;;
15643;SDS011;7921;43.586;1.408;2023-05-15T10:27:40;4.10;;;3.70;;
15643;SDS011;7921;43.586;1.408;2023-05-15T10:30:06;5.65;;;4.50;;
15643;SDS011;7921;43.586;1.408;2023-05-15T10:32:34;5.38;;;4.63;;
15643;SDS011;7921;43.586;1.408;2023-05-15T10:34:59;4.93;;;4.50;;
15643;SDS011;7921;43.586;1.408;2023-05-15T10:37:25;5.07;;;4.68;;
15643;SDS011;7921;43.586;1.408;2023-05-15T10:39:52;5.25;;;4.85;;
15643;SDS011;7921;43.586;1.408;2023-05-15T10:42:20;5.20;;;4.70;;
15643;SDS011;7921;43.586;1.408;2023-05-15T10:44:45;5.88;;;4.32;;
15643;SDS011;7921;43.586;1.408;2023-05-15T10:47:12;4.93;;;4.43;;
15643;SDS011;7921;43.586;1.408;2023-05-15T10:49:37;6.28;;;4.32;;
15643;SDS011;7921;43.586;1.408;2023-05-15T10:52:03;4.70;;;4.25;;
15643;SDS011;7921;43.586;1.408;2023-05-15T10:54:28;4.85;;;4.10;;
15643;SDS011;7921;43.586;1.408;2023-05-15T10:56:55;4.75;;;4.20;;
15643;SDS011;7921;43.586;1.408;2023-05-15T10:59:21;4.15;;;3.75;;
15643;SDS011;7921;43.586;1.408;2023-05-15T11:01:55;4.20;;;3.75;;
15643;SDS011;7921;43.586;1.408;2023-05-15T11:04:21;4.47;;;4.07;;
15643;SDS011;7921;43.586;1.408;2023-05-15T11:06:48;4.40;;;4.00;;
15643;SDS011;7921;43.586;1.408;2023-05-15T11:11:59;4.60;;;4.20;;
15643;SDS011;7921;43.586;1.408;2023-05-15T11:14:26;4.72;;;4.07;;
15643;SDS011;7921;43.586;1.408;2023-05-15T11:19:30;4.53;;;4.05;;
15643;SDS011;7921;43.586;1.408;2023-05-15T11:22:14;4.38;;;3.97;;
15643;SDS011;7921;43.586;1.408;2023-05-15T11:24:48;4.75;;;4.35;;
15643;SDS011;7921;43.586;1.408;2023-05-15T11:27:18;4.80;;;4.30;;
15643;SDS011;7921;43.586;1.408;2023-05-15T11:30:05;4.28;;;3.90;;
15643;SDS011;7921;43.586;1.408;2023-05-15T11:37:47;4.47;;;4.07;;
15643;SDS011;7921;43.586;1.408;2023-05-15T11:40:58;4.00;;;3.70;;
15643;SDS011;7921;43.586;1.408;2023-05-15T11:43:16;5.18;;;4.30;;
15643;SDS011;7921;43.586;1.408;2023-05-15T11:45:44;4.28;;;3.88;;
15643;SDS011;7921;43.586;1.408;2023-05-15T11:48:11;4.80;;;4.40;;
15643;SDS011;7921;43.586;1.408;2023-05-15T11:50:39;4.35;;;3.95;;
15643;SDS011;7921;43.586;1.408;2023-05-15T11:53:06;4.05;;;3.78;;
15643;SDS011;7921;43.586;1.408;2023-05-15T11:55:33;4.75;;;3.63;;
15643;SDS011;7921;43.586;1.408;2023-05-15T11:58:00;3.95;;;3.67;;
15643;SDS011;7921;43.586;1.408;2023-05-15T12:00:26;4.00;;;3.40;;
15643;SDS011;7921;43.586;1.408;2023-05-15T12:02:51;3.92;;;3.63;;
15643;SDS011;7921;43.586;1.408;2023-05-15T12:05:17;3.90;;;3.60;;
15643;SDS011;7921;43.586;1.408;2023-05-15T12:07:43;3.83;;;3.53;;
15643;SDS011;7921;43.586;1.408;2023-05-15T12:10:09;3.85;;;3.55;;
15643;SDS011;7921;43.586;1.408;2023-05-15T12:12:37;4.28;;;3.95;;
15643;SDS011;7921;43.586;1.408;2023-05-15T12:15:07;4.13;;;3.83;;
15643;SDS011;7921;43.586;1.408;2023-05-15T12:17:35;3.20;;;2.88;;
15643;SDS011;7921;43.586;1.408;2023-05-15T12:20:08;4.00;;;3.63;;
15643;SDS011;7921;43.586;1.408;2023-05-15T12:22:36;4.22;;;3.53;;
15643;SDS011;7921;43.586;1.408;2023-05-15T12:25:02;3.80;;;3.50;;
15643;SDS011;7921;43.586;1.408;2023-05-15T12:27:29;3.83;;;3.53;;
15643;SDS011;7921;43.586;1.408;2023-05-15T12:29:54;3.58;;;3.30;;
15643;SDS011;7921;43.586;1.408;2023-05-15T12:32:20;3.63;;;3.20;;
15643;SDS011;7921;43.586;1.408;2023-05-15T12:34:45;3.40;;;3.20;;
15643;SDS011;7921;43.586;1.408;2023-05-15T12:37:13;3.60;;;3.25;;
15643;SDS011;7921;43.586;1.408;2023-05-15T12:39:55;4.88;;;3.13;;
15643;SDS011;7921;43.586;1.408;2023-05-15T12:42:23;3.45;;;3.15;;
15643;SDS011;7921;43.586;1.408;2023-05-15T12:44:53;3.40;;;3.20;;
15643;SDS011;7921;43.586;1.408;2023-05-15T12:47:23;3.17;;;2.97;;
15643;SDS011;7921;43.586;1.408;2023-05-15T12:49:49;3.38;;;3.05;;
15643;SDS011;7921;43.586;1.408;2023-05-15T12:52:19;4.15;;;3.33;;
15643;SDS011;7921;43.586;1.408;2023-05-15T12:54:44;2.90;;;2.60;;
15643;SDS011;7921;43.586;1.408;2023-05-15T12:57:11;2.90;;;2.70;;
15643;SDS011;7921;43.586;1.408;2023-05-15T12:59:38;3.13;;;2.92;;
15643;SDS011;7921;43.586;1.408;2023-05-15T13:02:04;3.08;;;2.80;;
15643;SDS011;7921;43.586;1.408;2023-05-15T13:04:33;3.10;;;2.90;;
15643;SDS011;7921;43.586;1.408;2023-05-15T13:06:58;2.95;;;2.75;;
15643;SDS011;7921;43.586;1.408;2023-05-15T13:09:24;3.00;;;2.80;;
15643;SDS011;7921;43.586;1.408;2023-05-15T13:11:50;2.67;;;2.47;;
15643;SDS011;7921;43.586;1.408;2023-05-15T13:14:19;2.42;;;2.22;;
15643;SDS011;7921;43.586;1.408;2023-05-15T13:16:45;2.33;;;2.20;;
15643;SDS011;7921;43.586;1.408;2023-05-15T13:19:11;3.40;;;2.88;;
15643;SDS011;7921;43.586;1.408;2023-05-15T13:21:36;3.95;;;2.75;;
15643;SDS011;7921;43.586;1.408;2023-05-15T13:24:02;2.95;;;2.72;;
15643;SDS011;7921;43.586;1.408;2023-05-15T13:26:28;3.85;;;2.38;;
15643;SDS011;7921;43.586;1.408;2023-05-15T13:28:53;2.55;;;2.35;;
15643;SDS011;7921;43.586;1.408;2023-05-15T13:31:19;2.50;;;2.15;;
15643;SDS011;7921;43.586;1.408;2023-05-15T13:33:44;2.83;;;2.55;;
15643;SDS011;7921;43.586;1.408;2023-05-15T13:36:10;2.95;;;2.65;;
15643;SDS011;7921;43.586;1.408;2023-05-15T13:38:35;3.53;;;2.75;;
15643;SDS011;7921;43.586;1.408;2023-05-15T13:41:02;2.65;;;2.45;;
15643;SDS011;7921;43.586;1.408;2023-05-15T13:43:28;2.60;;;2.40;;
15643;SDS011;7921;43.586;1.408;2023-05-15T13:45:53;2.40;;;2.20;;
15643;SDS011;7921;43.586;1.408;2023-05-15T13:48:19;3.15;;;2.33;;
15643;SDS011;7921;43.586;1.408;2023-05-15T13:50:44;2.78;;;1.90;;
15643;SDS011;7921;43.586;1.408;2023-05-15T13:53:10;2.33;;;1.90;;
15643;SDS011;7921;43.586;1.408;2023-05-15T13:55:40;2.15;;;2.03;;
15643;SDS011;7921;43.586;1.408;2023-05-15T13:58:06;2.35;;;2.10;;
15643;SDS011;7921;43.586;1.408;2023-05-15T14:00:31;2.38;;;2.15;;
15643;SDS011;7921;43.586;1.408;2023-05-15T14:02:57;2.30;;;2.10;;
15643;SDS011;7921;43.586;1.408;2023-05-15T14:05:22;3.13;;;2.30;;
15643;SDS011;7921;43.586;1.408;2023-05-15T14:07:47;2.40;;;2.20;;
15643;SDS011;7921;43.586;1.408;2023-05-15T14:10:13;2.28;;;2.10;;
15643;SDS011;7921;43.586;1.408;2023-05-15T14:12:38;3.72;;;2.10;;
15643;SDS011;7921;43.586;1.408;2023-05-15T14:15:04;1.80;;;1.70;;
15643;SDS011;7921;43.586;1.408;2023-05-15T14:17:30;2.40;;;2.20;;
15643;SDS011;7921;43.586;1.408;2023-05-15T14:19:55;1.75;;;1.65;;
15643;SDS011;7921;43.586;1.408;2023-05-15T14:22:21;2.00;;;1.90;;
15643;SDS011;7921;43.586;1.408;2023-05-15T14:24:48;1.90;;;1.80;;
15643;SDS011;7921;43.586;1.408;2023-05-15T14:27:15;1.90;;;1.80;;
15643;SDS011;7921;43.586;1.408;2023-05-15T14:29:41;2.38;;;1.65;;
15643;SDS011;7921;43.586;1.408;2023-05-15T14:32:08;2.85;;;1.80;;
15643;SDS011;7921;43.586;1.408;2023-05-15T14:34:34;1.63;;;1.52;;
15643;SDS011;7921;43.586;1.408;2023-05-15T14:36:59;3.63;;;1.60;;
15643;SDS011;7921;43.586;1.408;2023-05-15T14:39:25;1.70;;;1.60;;
15643;SDS011;7921;43.586;1.408;2023-05-15T14:41:50;2.00;;;1.90;;
15643;SDS011;7921;43.586;1.408;2023-05-15T14:44:15;2.05;;;1.73;;
15643;SDS011;7921;43.586;1.408;2023-05-15T14:46:41;1.88;;;1.77;;
15643;SDS011;7921;43.586;1.408;2023-05-15T14:49:07;1.60;;;1.50;;
15643;SDS011;7921;43.586;1.408;2023-05-15T14:51:32;2.28;;;1.75;;
15643;SDS011;7921;43.586;1.408;2023-05-15T14:53:58;1.42;;;1.35;;
15643;SDS011;7921;43.586;1.408;2023-05-15T14:56:23;1.80;;;1.70;;
15643;SDS011;7921;43.586;1.408;2023-05-15T14:58:49;2.63;;;1.58;;
15643;SDS011;7921;43.586;1.408;2023-05-15T15:01:15;2.05;;;1.63;;
15643;SDS011;7921;43.586;1.408;2023-05-15T15:03:41;2.42;;;2.20;;
15643;SDS011;7921;43.586;1.408;2023-05-15T15:06:06;1.60;;;1.50;;
15643;SDS011;7921;43.586;1.408;2023-05-15T15:08:32;2.08;;;1.90;;
15643;SDS011;7921;43.586;1.408;2023-05-15T15:10:57;1.92;;;1.83;;
15643;SDS011;7921;43.586;1.408;2023-05-15T15:13:23;2.33;;;1.88;;
15643;SDS011;7921;43.586;1.408;2023-05-15T15:15:50;1.98;;;1.40;;
15643;SDS011;7921;43.586;1.408;2023-05-15T15:18:15;2.20;;;2.00;;
15643;SDS011;7921;43.586;1.408;2023-05-15T15:20:41;2.30;;;1.98;;
15643;SDS011;7921;43.586;1.408;2023-05-15T15:23:07;1.80;;;1.70;;
15643;SDS011;7921;43.586;1.408;2023-05-15T15:25:33;2.13;;;1.83;;
15643;SDS011;7921;43.586;1.408;2023-05-15T15:27:59;2.08;;;1.85;;
15643;SDS011;7921;43.586;1.408;2023-05-15T15:30:24;2.08;;;1.90;;